createdAt,value
2022-08-17T00:01:27.354Z,1.40
2022-08-17T00:05:32.779Z,1.43
2022-08-17T00:09:35.165Z,1.27
2022-08-17T00:13:45.030Z,1.70
2022-08-17T00:17:51.020Z,1.67
2022-08-17T00:22:32.032Z,1.70
2022-08-17T00:26:43.607Z,1.57
2022-08-17T00:30:51.284Z,1.70
2022-08-17T00:34:55.840Z,1.40
2022-08-17T00:38:58.071Z,1.40
2022-08-17T00:43:18.840Z,1.53
2022-08-17T00:47:21.527Z,1.77
2022-08-17T00:51:47.540Z,1.40
2022-08-17T00:55:49.876Z,1.50
2022-08-17T01:00:02.123Z,1.73
2022-08-17T01:04:06.703Z,1.63
2022-08-17T01:08:13.720Z,1.40
2022-08-17T01:12:16.570Z,1.80
2022-08-17T01:16:31.013Z,1.57
2022-08-17T01:20:47.835Z,1.50
2022-08-17T01:24:56.286Z,1.40
2022-08-17T01:28:59.090Z,1.60
2022-08-17T01:33:01.778Z,1.60
2022-08-17T01:37:04.491Z,1.60
2022-08-17T01:41:14.066Z,1.63
2022-08-17T01:45:23.634Z,1.30
2022-08-17T01:49:26.020Z,1.63
2022-08-17T01:53:33.090Z,1.80
2022-08-17T01:57:35.271Z,1.33
2022-08-17T02:01:38.232Z,1.90
2022-08-17T02:05:41.174Z,1.60
2022-08-17T02:09:44.210Z,1.63
2022-08-17T02:14:02.355Z,2.27
2022-08-17T02:18:07.022Z,1.90
2022-08-17T02:22:10.297Z,1.70
2022-08-17T02:26:23.889Z,1.30
2022-08-17T02:31:00.938Z,1.90
2022-08-17T02:34:51.151Z,1.80
2022-08-17T02:38:53.185Z,1.63
2022-08-17T02:42:55.656Z,1.60
2022-08-17T02:46:57.722Z,1.63
2022-08-17T02:51:01.023Z,1.80
2022-08-17T02:55:04.351Z,1.80
2022-08-17T02:59:06.385Z,2.23
2022-08-17T03:03:11.041Z,1.60
2022-08-17T03:07:13.296Z,1.83
2022-08-17T03:11:16.247Z,1.60
2022-08-17T03:15:25.173Z,1.80
2022-08-17T03:19:28.431Z,2.03
2022-08-17T03:23:32.376Z,1.73
2022-08-17T03:27:34.380Z,1.40
2022-08-17T03:31:36.957Z,2.00
2022-08-17T03:35:40.802Z,1.70
2022-08-17T03:39:43.483Z,1.70
2022-08-17T03:43:45.817Z,1.67
2022-08-17T03:48:06.530Z,1.90
2022-08-17T03:52:51.716Z,1.90
2022-08-17T03:57:11.741Z,1.77
2022-08-17T04:01:15.007Z,1.60
2022-08-17T04:05:17.956Z,1.90
2022-08-17T04:09:20.262Z,1.80
2022-08-17T04:13:24.186Z,1.83
2022-08-17T04:17:29.531Z,1.50
2022-08-17T04:21:32.291Z,1.87
2022-08-17T04:25:43.474Z,1.97
2022-08-17T04:29:55.144Z,1.30
2022-08-17T04:33:58.307Z,1.55
2022-08-17T04:38:00.856Z,1.70
2022-08-17T04:42:09.775Z,1.40
2022-08-17T04:46:17.852Z,1.35
2022-08-17T04:50:20.125Z,1.65
2022-08-17T04:54:24.080Z,1.60
2022-08-17T04:58:26.878Z,1.30
2022-08-17T05:02:28.864Z,1.60
2022-08-17T05:06:32.388Z,1.25
2022-08-17T05:10:37.212Z,1.42
2022-08-17T05:14:47.746Z,1.10
2022-08-17T05:18:50.258Z,1.05
2022-08-17T05:22:56.092Z,1.40
2022-08-17T05:27:02.617Z,1.30
2022-08-17T05:31:09.346Z,1.30
2022-08-17T05:35:11.789Z,1.45
2022-08-17T05:39:16.178Z,1.10
2022-08-17T05:43:25.442Z,1.00
2022-08-17T05:47:28.992Z,1.33
2022-08-17T05:51:34.193Z,1.08
2022-08-17T05:55:42.851Z,1.63
2022-08-17T05:59:56.121Z,1.65
2022-08-17T06:04:22.510Z,1.60
2022-08-17T06:08:48.709Z,1.75
2022-08-17T06:13:00.223Z,2.00
2022-08-17T06:17:08.466Z,1.42
2022-08-17T06:21:13.674Z,1.52
2022-08-17T06:25:23.691Z,1.45
2022-08-17T06:29:55.971Z,1.70
2022-08-17T06:34:00.374Z,1.90
2022-08-17T06:38:37.374Z,2.03
2022-08-17T06:43:15.645Z,1.97
2022-08-17T06:47:30.322Z,1.83
2022-08-17T06:51:40.969Z,2.03
2022-08-17T06:56:22.302Z,1.87
2022-08-17T07:00:33.796Z,1.97
2022-08-17T07:04:36.145Z,2.87
2022-08-17T07:08:50.178Z,2.33
2022-08-17T07:12:56.838Z,2.50
2022-08-17T07:17:04.230Z,2.40
2022-08-17T07:21:31.461Z,2.70
2022-08-17T07:25:33.755Z,2.50
2022-08-17T07:29:47.053Z,2.10
2022-08-17T07:34:14.669Z,3.10
2022-08-17T07:38:26.819Z,2.20
2022-08-17T07:42:29.998Z,3.00
2022-08-17T07:46:53.887Z,2.20
2022-08-17T07:51:00.318Z,2.50
2022-08-17T07:55:27.181Z,2.43
2022-08-17T08:00:17.014Z,2.60
2022-08-17T08:04:59.091Z,2.10
2022-08-17T08:08:55.805Z,3.00
2022-08-17T08:13:06.525Z,2.17
2022-08-17T08:17:09.410Z,2.33
2022-08-17T08:21:42.098Z,1.97
2022-08-17T08:25:50.801Z,2.90
2022-08-17T08:30:15.381Z,2.00
2022-08-17T08:35:02.732Z,2.77
2022-08-17T08:40:07.536Z,2.33
2022-08-17T08:45:03.918Z,2.13
2022-08-17T08:49:12.436Z,2.23
2022-08-17T08:53:36.514Z,1.80
2022-08-17T08:57:44.251Z,2.10
2022-08-17T09:02:04.706Z,1.87
2022-08-17T09:06:38.799Z,1.73
2022-08-17T09:10:58.776Z,2.00
2022-08-17T09:15:27.807Z,1.50
2022-08-17T09:19:46.119Z,1.58
2022-08-17T09:23:52.600Z,1.80
2022-08-17T09:28:07.165Z,1.70
2022-08-17T09:32:52.180Z,2.38
2022-08-17T09:37:21.899Z,2.03
2022-08-17T09:41:49.202Z,2.10
2022-08-17T09:45:57.358Z,1.95
2022-08-17T09:50:11.790Z,1.98
2022-08-17T09:54:40.417Z,2.03
2022-08-17T09:58:52.670Z,2.10
2022-08-17T10:03:04.813Z,1.95
2022-08-17T10:07:17.721Z,1.50
2022-08-17T10:12:03.281Z,1.95
2022-08-17T10:16:11.377Z,1.80
2022-08-17T10:20:30.927Z,2.13
2022-08-17T10:25:22.149Z,2.22
2022-08-17T10:29:48.845Z,1.90
2022-08-17T10:34:27.353Z,1.60
2022-08-17T10:38:46.494Z,1.95
2022-08-17T10:43:10.776Z,2.20
2022-08-17T10:47:16.269Z,2.13
2022-08-17T10:51:38.340Z,1.75
2022-08-17T10:55:44.573Z,2.40
2022-08-17T10:59:51.039Z,2.20
2022-08-17T11:03:56.956Z,1.52
2022-08-17T11:08:18.518Z,1.92
2022-08-17T11:13:01.395Z,2.28
2022-08-17T11:17:20.004Z,1.90
2022-08-17T11:21:55.299Z,1.92
2022-08-17T11:26:04.171Z,2.20
2022-08-17T11:30:34.928Z,2.17
2022-08-17T11:34:38.980Z,2.17
2022-08-17T11:39:17.799Z,2.50
2022-08-17T11:43:47.764Z,1.85
2022-08-17T11:48:28.687Z,2.10
2022-08-17T11:52:46.725Z,1.92
2022-08-17T11:56:52.216Z,1.95
2022-08-17T12:00:56.911Z,2.17
2022-08-17T12:05:14.430Z,1.77
2022-08-17T12:09:22.140Z,2.22
2022-08-17T12:13:27.444Z,1.90
2022-08-17T12:17:52.537Z,1.88
2022-08-17T12:22:01.414Z,1.88
2022-08-17T12:26:19.990Z,2.40
2022-08-17T12:30:22.765Z,1.90
2022-08-17T12:34:29.279Z,2.05
2022-08-17T12:38:34.899Z,1.92
2022-08-17T12:42:39.551Z,2.08
2022-08-17T12:46:50.430Z,1.55
2022-08-17T12:51:00.691Z,1.67
2022-08-17T12:55:07.740Z,1.80
2022-08-17T12:59:11.091Z,1.98
2022-08-17T13:03:17.091Z,1.95
2022-08-17T13:07:43.817Z,1.45
2022-08-17T13:12:04.970Z,1.48
2022-08-17T13:16:14.491Z,1.63
2022-08-17T13:20:17.815Z,1.83
2022-08-17T13:24:24.202Z,1.90
2022-08-17T13:28:29.890Z,1.88
2022-08-17T13:32:46.342Z,1.63
2022-08-17T13:36:50.665Z,1.92
2022-08-17T13:40:53.827Z,1.92
2022-08-17T13:44:56.453Z,1.92
2022-08-17T13:49:07.022Z,1.92
2022-08-17T13:53:40.212Z,1.70
2022-08-17T13:57:47.457Z,1.65
2022-08-17T14:01:53.905Z,1.40
2022-08-17T14:05:56.956Z,2.40
2022-08-17T14:10:06.859Z,1.80
2022-08-17T14:14:09.381Z,1.90
2022-08-17T14:18:12.151Z,1.90
2022-08-17T14:22:26.129Z,1.63
2022-08-17T14:26:29.361Z,1.88
2022-08-17T14:30:32.288Z,1.52
2022-08-17T14:34:34.640Z,1.58
2022-08-17T14:38:37.537Z,1.60
2022-08-17T14:42:42.779Z,1.77
2022-08-17T14:46:45.625Z,1.90
2022-08-17T14:50:47.931Z,1.42
2022-08-17T14:54:52.646Z,1.65
2022-08-17T14:58:55.751Z,1.75
2022-08-17T15:03:00.233Z,2.00
2022-08-17T15:07:03.831Z,1.60
2022-08-17T15:11:06.088Z,1.88
2022-08-17T15:15:18.543Z,2.10
2022-08-17T15:19:20.991Z,1.80
2022-08-17T15:23:26.250Z,1.70
2022-08-17T15:27:32.822Z,1.70
2022-08-17T15:31:35.157Z,2.45
2022-08-17T15:35:37.956Z,1.88
2022-08-17T15:39:39.919Z,1.77
2022-08-17T15:43:43.076Z,1.70
2022-08-17T15:47:46.626Z,1.70
2022-08-17T15:51:49.265Z,1.90
2022-08-17T15:55:52.249Z,2.00
2022-08-17T15:59:58.664Z,1.95
2022-08-17T16:04:07.265Z,2.03
2022-08-17T16:08:25.442Z,1.60
2022-08-17T16:12:28.146Z,1.75
2022-08-17T16:16:31.404Z,2.05
2022-08-17T16:20:33.602Z,1.83
2022-08-17T16:24:39.304Z,1.98
2022-08-17T16:28:41.968Z,1.45
2022-08-17T16:32:44.157Z,1.88
2022-08-17T16:36:54.835Z,1.60
2022-08-17T16:40:58.745Z,2.13
2022-08-17T16:45:20.077Z,2.03
2022-08-17T16:49:31.559Z,1.75
2022-08-17T16:53:38.739Z,2.03
2022-08-17T16:57:48.541Z,1.25
2022-08-17T17:01:52.784Z,1.73
2022-08-17T17:05:58.152Z,1.33
2022-08-17T17:10:05.896Z,1.40
2022-08-17T17:14:20.711Z,1.87
2022-08-17T17:18:47.749Z,1.40
2022-08-17T17:23:04.935Z,1.40
2022-08-17T17:27:53.486Z,1.50
2022-08-17T17:32:14.275Z,1.57
2022-08-17T17:36:40.172Z,1.77
2022-08-17T17:40:48.457Z,1.47
2022-08-17T17:45:07.817Z,1.87
2022-08-17T17:49:14.525Z,2.23
2022-08-17T17:53:35.388Z,1.70
2022-08-17T17:58:07.483Z,1.67
2022-08-17T18:02:53.421Z,2.43
2022-08-17T18:07:28.472Z,1.70
2022-08-17T18:12:07.605Z,1.53
2022-08-17T18:16:19.052Z,1.93
2022-08-17T18:20:46.742Z,2.03
2022-08-17T18:25:00.893Z,2.20
2022-08-17T18:29:37.704Z,1.83
2022-08-17T18:33:57.126Z,2.20
2022-08-17T18:38:41.539Z,2.33
2022-08-17T18:42:58.196Z,2.37
2022-08-17T18:47:27.617Z,1.97
2022-08-17T18:51:41.835Z,2.17
2022-08-17T18:55:45.145Z,2.23
2022-08-17T18:59:48.405Z,2.60
2022-08-17T19:03:50.629Z,2.80
2022-08-17T19:07:52.841Z,2.63
2022-08-17T19:11:56.488Z,2.53
2022-08-17T19:16:14.571Z,2.57
2022-08-17T19:20:27.555Z,2.63
2022-08-17T19:24:35.376Z,2.33
2022-08-17T19:28:58.522Z,3.17
2022-08-17T19:33:02.347Z,2.43
2022-08-17T19:37:32.130Z,2.70
2022-08-17T19:41:43.117Z,2.57
2022-08-17T19:46:43.049Z,3.00
2022-08-17T19:51:11.501Z,2.63
2022-08-17T19:55:22.837Z,3.30
2022-08-17T19:59:49.616Z,3.20
2022-08-17T20:04:06.924Z,2.90
2022-08-17T20:08:15.115Z,3.30
2022-08-17T20:12:20.219Z,2.80
2022-08-17T20:21:37.264Z,2.83
2022-08-17T20:25:47.444Z,2.97
2022-08-17T20:30:35.711Z,3.40
2022-08-17T20:34:40.110Z,3.07
2022-08-17T20:38:48.408Z,3.23
2022-08-17T20:42:52.106Z,3.13
2022-08-17T20:47:04.121Z,2.33
2022-08-17T20:52:00.480Z,2.60
2022-08-17T20:56:04.000Z,3.73
2022-08-17T21:00:16.780Z,2.90
2022-08-17T21:04:53.036Z,2.60
2022-08-17T21:09:15.072Z,2.83
2022-08-17T21:13:17.130Z,2.60
2022-08-17T21:17:30.156Z,3.30
2022-08-17T21:21:52.151Z,3.17
2022-08-17T21:25:59.233Z,3.07
2022-08-17T21:30:10.281Z,2.90
2022-08-17T21:34:16.935Z,3.03
2022-08-17T21:38:33.178Z,3.20
2022-08-17T21:42:38.554Z,2.53
2022-08-17T21:46:45.837Z,3.30
2022-08-17T21:51:12.981Z,2.87
2022-08-17T21:55:31.121Z,2.47
2022-08-17T21:59:38.438Z,2.97
2022-08-17T22:03:41.406Z,3.17
2022-08-17T22:07:45.960Z,3.10
2022-08-17T22:11:54.130Z,2.87
2022-08-17T22:16:29.345Z,3.63
2022-08-17T22:20:32.097Z,3.23
2022-08-17T22:24:36.942Z,3.67
2022-08-17T22:28:46.972Z,2.97
2022-08-17T22:32:49.977Z,3.63
2022-08-17T22:37:27.456Z,3.20
2022-08-17T22:41:35.818Z,3.13
2022-08-17T22:45:45.165Z,3.53
2022-08-17T22:49:53.376Z,3.17
2022-08-17T22:54:31.611Z,3.40
2022-08-17T22:58:58.842Z,3.60
2022-08-17T23:03:06.951Z,3.50
2022-08-17T23:07:09.243Z,3.80
2022-08-17T23:11:11.524Z,3.30
2022-08-17T23:15:17.872Z,3.53
2022-08-17T23:19:21.524Z,3.40
2022-08-17T23:23:23.991Z,3.37
2022-08-17T23:27:29.544Z,3.50
2022-08-17T23:31:37.773Z,3.23
2022-08-17T23:35:41.113Z,3.27
2022-08-17T23:39:47.248Z,3.70
2022-08-17T23:43:52.920Z,3.73
2022-08-17T23:47:55.635Z,3.67
2022-08-17T23:51:59.693Z,3.27
2022-08-17T23:56:09.436Z,3.30
